Time;durP1;ratioP1;P1;durP2;ratioP2;P2;SDS_P1;SDS_P2;PMS_P1;PMS_P2;Temp;Humidity;BMP_temperature;BMP_pressure;BME280_temperature;BME280_humidity;BME280_pressure;Samples;Min_cycle;Max_cycle;Signal;HPM_P1;HPM_P2
2022/10/26 00:02:19;;;;;;;4.88;3.38;;;;;;;1.76;65.52;99934.72;6206275;22;20019;-75
2022/10/26 00:04:44;;;;;;;10.48;4.35;;;;;;;1.75;65.51;99936.50;6233780;22;20019;-79
2022/10/26 00:07:09;;;;;;;9.02;4.63;;;;;;;1.78;65.39;99946.06;6206747;22;20097;-78
2022/10/26 00:09:34;;;;;;;8.82;4.95;;;;;;;1.69;65.91;99938.47;6232815;22;20054;-76
2022/10/26 00:11:58;;;;;;;35.35;6.80;;;;;;;1.63;66.03;99942.13;6233450;22;20415;-76
2022/10/26 00:14:23;;;;;;;6.78;4.45;;;;;;;1.67;65.79;99935.88;6230895;22;20091;-74
2022/10/26 00:16:48;;;;;;;8.15;4.88;;;;;;;1.64;65.70;99928.09;6232430;22;20439;-74
2022/10/26 00:19:12;;;;;;;7.22;4.35;;;;;;;1.55;66.22;99938.88;6232010;22;20023;-73
2022/10/26 00:21:37;;;;;;;8.35;4.85;;;;;;;1.62;66.19;99934.28;6206603;22;20685;-80
2022/10/26 00:24:01;;;;;;;8.35;4.40;;;;;;;1.49;66.91;99933.78;6249221;22;20030;-76
2022/10/26 00:26:26;;;;;;;6.97;4.80;;;;;;;1.52;66.72;99917.94;6237815;22;20015;-74
2022/10/26 00:28:56;;;;;;;12.77;5.50;;;;;;;1.50;66.66;99930.25;6233093;22;20026;-75
2022/10/26 00:31:20;;;;;;;11.18;3.63;;;;;;;1.65;66.22;99927.19;6232113;22;20526;-81
2022/10/26 00:33:45;;;;;;;9.32;5.05;;;;;;;1.73;65.98;99926.94;6233344;22;20536;-76
2022/10/26 00:36:12;;;;;;;8.13;4.60;;;;;;;1.63;66.49;99926.38;6230916;22;20814;-76
2022/10/26 00:38:37;;;;;;;4.13;2.50;;;;;;;1.68;66.35;99929.72;6230153;22;20023;-74
2022/10/26 00:41:01;;;;;;;13.68;5.85;;;;;;;1.60;66.59;99936.09;6178178;22;20019;-71
2022/10/26 00:43:26;;;;;;;9.70;4.72;;;;;;;1.72;66.45;99922.59;6228759;22;20015;-72
2022/10/26 00:45:54;;;;;;;10.38;5.65;;;;;;;1.76;66.38;99925.09;6228778;22;20015;-72
2022/10/26 00:48:25;;;;;;;7.70;4.20;;;;;;;1.92;66.14;99920.19;6228815;22;20019;-72
2022/10/26 00:50:51;;;;;;;12.35;4.28;;;;;;;1.90;66.10;99923.78;6230678;22;20023;-78
2022/10/26 00:53:18;;;;;;;12.20;4.90;;;;;;;1.87;66.47;99919.47;6231896;22;20019;-76
2022/10/26 00:55:48;;;;;;;7.53;3.92;;;;;;;2.01;66.25;99922.53;6230745;22;20027;-68
2022/10/26 00:58:14;;;;;;;6.90;4.40;;;;;;;1.81;66.36;99925.78;6205181;22;20011;-77
2022/10/26 01:00:42;;;;;;;7.75;4.68;;;;;;;1.78;66.66;99930.28;6205422;22;20125;-77
2022/10/26 01:03:08;;;;;;;13.23;5.28;;;;;;;1.78;67.01;99931.16;6231839;22;20015;-74
2022/10/26 01:05:35;;;;;;;15.48;6.05;;;;;;;1.83;66.99;99929.22;6232403;22;20015;-76
2022/10/26 01:08:01;;;;;;;9.70;5.57;;;;;;;1.88;66.70;99923.84;6234029;22;20027;-73
2022/10/26 01:10:26;;;;;;;10.23;5.50;;;;;;;2.00;65.89;99935.72;6233420;22;20023;-76
2022/10/26 01:12:52;;;;;;;10.65;6.63;;;;;;;1.98;65.99;99933.16;6232935;22;20015;-75
2022/10/26 01:15:19;;;;;;;9.57;5.25;;;;;;;1.94;66.06;99925.41;6208241;22;20047;-77
2022/10/26 01:17:54;;;;;;;10.68;5.93;;;;;;;1.97;66.46;99925.31;6232688;22;20011;-75
2022/10/26 01:21:07;;;;;;;13.80;4.90;;;;;;;2.11;66.28;99926.59;6235510;22;20102;-75
2022/10/26 01:24:07;;;;;;;10.15;4.63;;;;;;;2.00;66.10;99930.47;6092933;23;20020;-75
2022/10/26 01:26:40;;;;;;;11.30;5.57;;;;;;;1.99;65.78;99928.75;6082747;23;20017;-74
2022/10/26 01:29:26;;;;;;;7.70;4.43;;;;;;;2.16;65.56;99926.41;6102701;23;20080;-77
2022/10/26 01:32:03;;;;;;;9.88;5.03;;;;;;;1.98;66.15;99927.03;6124010;23;20084;-76
2022/10/26 01:34:45;;;;;;;15.57;5.85;;;;;;;1.90;66.13;99932.53;6100235;23;20025;-77
2022/10/26 01:37:18;;;;;;;15.40;7.97;;;;;;;1.82;66.53;99921.38;6080693;23;20057;-75
2022/10/26 01:39:58;;;;;;;5.07;3.63;;;;;;;1.90;66.46;99921.16;6068583;23;20021;-75
2022/10/26 01:42:24;;;;;;;13.60;6.10;;;;;;;1.84;65.91;99924.84;6096233;23;20072;-76
2022/10/26 01:44:58;;;;;;;9.95;5.35;;;;;;;1.86;66.59;99922.16;6053522;23;20101;-73
2022/10/26 01:47:24;;;;;;;14.23;6.45;;;;;;;1.87;66.56;99918.63;6100465;23;20065;-73
2022/10/26 01:49:55;;;;;;;14.02;6.50;;;;;;;1.95;66.11;99920.09;6122382;23;20037;-72
2022/10/26 01:52:20;;;;;;;16.70;6.07;;;;;;;1.84;66.60;99916.94;6073606;23;20598;-71
2022/10/26 01:54:45;;;;;;;12.88;5.97;;;;;;;1.75;66.57;99917.25;6115661;23;20473;-72
2022/10/26 01:57:13;;;;;;;13.57;6.05;;;;;;;1.80;66.17;99917.97;6064942;23;20031;-72
2022/10/26 01:59:44;;;;;;;10.63;6.68;;;;;;;1.80;66.07;99921.47;6165266;22;20127;-71
2022/10/26 02:02:40;;;;;;;12.23;5.85;;;;;;;1.80;66.34;99917.97;6237253;22;20016;-71
2022/10/26 02:05:25;;;;;;;14.48;6.38;;;;;;;1.84;66.30;99919.56;6210830;22;20014;-71
2022/10/26 02:08:08;;;;;;;12.55;6.93;;;;;;;1.70;66.55;99917.38;6255209;22;20039;-79
2022/10/26 02:10:51;;;;;;;15.90;6.65;;;;;;;1.78;66.52;99918.00;6232234;22;20016;-77
2022/10/26 02:14:07;;;;;;;11.55;6.18;;;;;;;1.74;65.94;99929.53;6201624;22;20015;-75
2022/10/26 02:16:51;;;;;;;;;;;;;;;1.65;65.73;99915.81;6061933;23;20022;-75
2022/10/26 02:19:33;;;;;;;13.95;6.68;;;;;;;1.52;66.39;99920.56;6053050;23;19921;-73
2022/10/26 02:22:29;;;;;;;8.95;5.63;;;;;;;1.50;66.77;99919.75;6125170;23;20473;-75
2022/10/26 02:24:58;;;;;;;15.13;6.68;;;;;;;1.40;66.94;99927.06;6016017;23;20018;-74
2022/10/26 02:27:26;;;;;;;18.52;8.70;;;;;;;1.30;67.10;99936.13;6014513;23;20038;-76
2022/10/26 02:29:53;;;;;;;11.65;5.80;;;;;;;1.19;67.39;99918.94;6032574;23;20021;-74
2022/10/26 02:32:21;;;;;;;14.25;6.65;;;;;;;1.07;67.86;99928.03;6041570;23;20023;-72
2022/10/26 02:34:48;;;;;;;16.30;7.30;;;;;;;1.26;67.76;99926.59;6047688;23;20033;-77
2022/10/26 02:37:17;;;;;;;19.45;6.60;;;;;;;1.18;67.84;99933.84;6024511;23;20026;-77
2022/10/26 02:39:43;;;;;;;8.60;5.65;;;;;;;1.00;68.09;99935.25;6034604;23;20018;-73
2022/10/26 02:42:09;;;;;;;21.50;6.80;;;;;;;1.04;68.19;99938.63;6038397;23;20022;-76
2022/10/26 02:44:53;;;;;;;15.50;6.35;;;;;;;1.08;68.48;99921.88;6041265;23;20078;-77
2022/10/26 02:47:19;;;;;;;14.55;6.30;;;;;;;0.97;68.26;99926.56;5968311;23;20051;-77
2022/10/26 02:49:44;;;;;;;15.75;7.93;;;;;;;1.06;68.43;99928.94;6044375;23;20086;-77
2022/10/26 02:52:22;;;;;;;12.85;6.53;;;;;;;0.91;68.46;99921.47;6083093;23;20013;-73
2022/10/26 02:54:59;;;;;;;9.00;5.90;;;;;;;0.92;69.14;99926.69;6193303;23;20016;-75
2022/10/26 02:57:31;;;;;;;15.90;6.43;;;;;;;0.86;69.03;99936.50;6171455;23;20028;-76
2022/10/26 02:59:57;;;;;;;12.80;7.47;;;;;;;0.95;69.03;99915.25;6164844;23;20020;-72
2022/10/26 03:02:22;;;;;;;7.82;5.07;;;;;;;1.05;68.83;99925.44;6245002;22;20069;-72
2022/10/26 03:04:49;;;;;;;12.35;7.65;;;;;;;1.04;68.81;99922.88;6231382;22;20048;-65
2022/10/26 03:07:22;;;;;;;10.68;6.22;;;;;;;1.04;69.01;99920.25;6206161;22;20016;-72
2022/10/26 03:09:47;;;;;;;14.82;8.02;;;;;;;1.19;68.78;99926.81;6231442;22;20023;-70
2022/10/26 03:12:11;;;;;;;12.80;5.63;;;;;;;1.20;68.75;99925.94;6205815;22;20022;-66
2022/10/26 03:14:36;;;;;;;13.68;7.05;;;;;;;1.31;68.41;99923.84;6205504;22;20031;-66
2022/10/26 03:17:00;;;;;;;13.57;6.88;;;;;;;1.26;68.38;99920.47;6231942;22;20047;-65
2022/10/26 03:19:25;;;;;;;9.93;4.88;;;;;;;1.33;68.35;99925.53;6205631;22;20015;-66
2022/10/26 03:21:50;;;;;;;14.60;6.53;;;;;;;1.23;68.26;99916.19;6204211;22;20016;-66
2022/10/26 03:24:14;;;;;;;15.82;6.80;;;;;;;1.15;68.54;99922.56;6206918;22;20112;-66
2022/10/26 03:26:39;;;;;;;12.98;6.50;;;;;;;1.15;68.34;99912.91;6233624;22;20086;-65
2022/10/26 03:29:03;;;;;;;13.40;6.85;;;;;;;1.03;68.85;99918.50;6234531;22;20043;-66
2022/10/26 03:31:28;;;;;;;13.02;6.40;;;;;;;1.13;68.72;99914.72;6236775;22;20023;-69
2022/10/26 03:33:53;;;;;;;8.20;5.07;;;;;;;1.21;68.36;99912.75;6233285;22;20035;-66
2022/10/26 03:36:17;;;;;;;12.30;7.13;;;;;;;1.20;68.43;99910.16;6235689;22;20016;-69
2022/10/26 03:38:42;;;;;;;17.20;7.88;;;;;;;1.23;68.61;99912.72;6237388;22;20016;-67
2022/10/26 03:41:06;;;;;;;4.97;3.80;;;;;;;1.29;68.25;99905.50;6238061;22;20031;-65
2022/10/26 03:43:31;;;;;;;15.13;5.95;;;;;;;1.32;68.14;99910.66;6234935;22;20098;-67
2022/10/26 03:45:55;;;;;;;14.40;6.35;;;;;;;1.25;68.34;99909.13;6232979;22;20015;-66
2022/10/26 03:48:20;;;;;;;10.75;7.38;;;;;;;1.35;68.25;99909.72;6232120;22;20027;-66
2022/10/26 03:50:45;;;;;;;15.68;6.85;;;;;;;1.35;68.27;99904.47;6233818;22;20019;-66
2022/10/26 03:53:10;;;;;;;9.50;5.68;;;;;;;1.47;68.11;99914.59;6234075;22;20029;-67
2022/10/26 03:55:35;;;;;;;13.05;6.90;;;;;;;1.38;68.28;99909.63;6232388;22;20094;-66
2022/10/26 03:58:00;;;;;;;13.38;6.72;;;;;;;1.33;68.32;99895.78;6180341;22;20043;-68
2022/10/26 04:00:24;;;;;;;13.20;7.20;;;;;;;1.34;68.55;99892.25;6235192;22;20016;-67
2022/10/26 04:02:57;;;;;;;12.60;6.38;;;;;;;1.43;68.54;99907.72;6232017;22;20025;-70
2022/10/26 04:05:23;;;;;;;8.27;5.95;;;;;;;1.46;68.34;99905.00;6181507;22;20450;-68
2022/10/26 04:08:01;;;;;;;18.73;9.38;;;;;;;1.51;68.26;99903.09;6235509;22;20098;-68
2022/10/26 04:10:26;;;;;;;10.40;5.78;;;;;;;1.37;68.25;99900.00;6236595;22;20015;-70
2022/10/26 04:12:52;;;;;;;12.80;6.32;;;;;;;1.49;68.16;99906.66;6233585;22;20022;-66
2022/10/26 04:15:17;;;;;;;11.98;7.57;;;;;;;1.42;68.64;99912.13;6207867;22;20031;-68
2022/10/26 04:17:42;;;;;;;14.43;7.35;;;;;;;1.47;68.31;99901.44;6232143;22;20062;-68
2022/10/26 04:20:07;;;;;;;13.30;5.93;;;;;;;1.48;68.08;99920.69;6234444;22;20020;-68
2022/10/26 04:22:32;;;;;;;8.55;5.32;;;;;;;1.64;68.17;99912.31;6234616;22;20346;-68
2022/10/26 04:24:56;;;;;;;15.70;6.68;;;;;;;1.68;67.89;99918.34;6232015;22;20359;-68
2022/10/26 04:27:21;;;;;;;13.45;7.40;;;;;;;1.68;68.00;99918.34;6234023;22;20090;-73
2022/10/26 04:29:46;;;;;;;17.63;6.32;;;;;;;1.70;67.57;99929.66;6206424;22;20098;-69
2022/10/26 04:32:10;;;;;;;14.70;6.72;;;;;;;1.79;67.15;99932.88;6178620;22;20011;-69
2022/10/26 04:34:35;;;;;;;15.43;5.90;;;;;;;1.90;67.17;99948.31;6229630;22;20068;-68
2022/10/26 04:36:59;;;;;;;17.88;7.85;;;;;;;1.80;67.23;99928.47;6231256;22;20026;-68
2022/10/26 04:39:24;;;;;;;9.30;5.15;;;;;;;1.89;66.86;99933.44;6230815;22;20335;-68
2022/10/26 04:41:50;;;;;;;7.40;5.13;;;;;;;1.93;67.03;99942.94;6230054;22;20459;-69
2022/10/26 04:44:14;;;;;;;12.23;6.38;;;;;;;1.85;67.32;99936.22;6231601;22;20023;-71
2022/10/26 04:46:39;;;;;;;16.30;6.25;;;;;;;1.88;66.83;99936.13;6230690;22;20022;-68
2022/10/26 04:49:03;;;;;;;10.15;5.65;;;;;;;1.92;66.93;99937.75;6228439;22;20022;-70
2022/10/26 04:51:29;;;;;;;12.30;7.03;;;;;;;1.90;67.37;99931.69;6230715;22;20103;-70
2022/10/26 04:53:54;;;;;;;13.98;6.70;;;;;;;1.97;66.83;99941.09;6230508;22;20012;-70
2022/10/26 04:56:18;;;;;;;8.95;5.85;;;;;;;2.09;66.61;99935.44;6231325;22;20094;-68
2022/10/26 04:58:43;;;;;;;13.63;6.97;;;;;;;2.01;66.41;99942.72;6231115;22;20093;-71
2022/10/26 05:01:07;;;;;;;11.35;6.05;;;;;;;2.14;65.92;99942.25;6205672;22;20021;-68
2022/10/26 05:03:32;;;;;;;13.48;6.95;;;;;;;2.05;65.99;99945.19;6232266;22;20047;-68
2022/10/26 05:05:58;;;;;;;41.05;9.05;;;;;;;2.16;65.99;99953.59;6234650;22;20011;-68
2022/10/26 05:08:23;;;;;;;11.95;7.03;;;;;;;2.08;66.35;99945.09;6232772;22;20054;-68
2022/10/26 05:10:49;;;;;;;13.30;5.68;;;;;;;2.15;66.44;99943.97;6176775;22;20011;-69
2022/10/26 05:13:13;;;;;;;15.73;5.45;;;;;;;2.33;65.64;99939.03;6202361;22;20106;-69
2022/10/26 05:15:38;;;;;;;10.82;5.90;;;;;;;2.28;65.34;99943.56;6229476;22;20137;-69
2022/10/26 05:18:04;;;;;;;15.05;7.15;;;;;;;2.26;65.21;99937.53;6227288;22;20007;-70
2022/10/26 05:20:31;;;;;;;8.18;5.72;;;;;;;2.33;64.66;99945.16;6228940;22;20049;-70
2022/10/26 05:22:57;;;;;;;12.25;6.85;;;;;;;2.32;64.95;99939.94;6230735;22;20518;-68
2022/10/26 05:25:22;;;;;;;12.52;6.45;;;;;;;2.29;65.04;99932.13;6227576;22;20133;-70
2022/10/26 05:27:47;;;;;;;6.30;4.35;;;;;;;2.31;64.96;99936.44;6230115;22;20022;-70
2022/10/26 05:30:12;;;;;;;11.93;6.10;;;;;;;2.27;65.17;99931.31;6230627;22;20020;-69
2022/10/26 05:32:36;;;;;;;9.45;5.95;;;;;;;2.31;65.14;99931.19;6228384;22;20016;-70
2022/10/26 05:35:01;;;;;;;12.80;6.00;;;;;;;2.42;64.53;99934.31;6227271;22;20411;-69
2022/10/26 05:37:28;;;;;;;11.88;5.40;;;;;;;2.52;64.70;99938.34;6227645;22;20019;-69
2022/10/26 05:39:52;;;;;;;13.07;7.65;;;;;;;2.67;63.93;99933.47;6229769;22;20039;-69
2022/10/26 05:42:17;;;;;;;10.45;5.97;;;;;;;2.66;63.39;99932.63;6228763;22;20069;-68
2022/10/26 05:44:42;;;;;;;12.10;5.68;;;;;;;2.59;63.74;99928.50;6231274;22;20091;-69
2022/10/26 05:47:06;;;;;;;9.85;5.53;;;;;;;2.73;63.56;99925.34;6229389;22;20371;-68
2022/10/26 05:49:31;;;;;;;14.93;6.38;;;;;;;2.70;63.33;99925.50;6230878;22;20397;-70
2022/10/26 05:51:55;;;;;;;8.43;4.57;;;;;;;2.78;62.68;99928.69;6230930;22;20447;-70
2022/10/26 05:54:20;;;;;;;12.82;6.65;;;;;;;2.70;62.97;99934.25;6229904;22;20367;-70
2022/10/26 05:56:45;;;;;;;11.02;5.55;;;;;;;2.71;63.52;99935.09;6203289;22;20012;-69
2022/10/26 05:59:12;;;;;;;13.27;6.57;;;;;;;2.96;63.66;99935.06;6229307;22;20019;-69
2022/10/26 06:02:01;;;;;;;16.05;6.38;;;;;;;3.42;62.74;99944.78;6229122;22;20419;-69
2022/10/26 06:04:37;;;;;;;16.27;6.82;;;;;;;3.54;61.66;99932.00;6228704;22;20019;-71
2022/10/26 06:07:02;;;;;;;12.65;5.75;;;;;;;3.76;60.97;99937.31;6238059;22;20426;-69
2022/10/26 06:09:27;;;;;;;13.10;5.80;;;;;;;4.00;60.12;99940.75;6230441;22;20011;-68
2022/10/26 06:11:52;;;;;;;10.10;6.30;;;;;;;4.12;58.81;99942.91;6228858;22;20019;-69
2022/10/26 06:14:17;;;;;;;6.72;4.03;;;;;;;4.32;59.04;99950.00;6229321;22;20077;-70
2022/10/26 06:16:41;;;;;;;7.82;4.30;;;;;;;4.25;57.79;99940.63;6229517;22;20046;-70
2022/10/26 06:19:20;;;;;;;9.38;4.80;;;;;;;4.20;58.60;99942.59;6227291;22;20019;-68
2022/10/26 06:21:50;;;;;;;6.65;3.85;;;;;;;4.20;58.09;99935.53;6238141;22;20015;-68
2022/10/26 06:24:15;;;;;;;11.02;5.20;;;;;;;4.08;57.98;99937.81;6239993;22;20016;-70
2022/10/26 06:27:01;;;;;;;7.53;4.53;;;;;;;4.14;58.46;99945.50;6228979;22;20102;-70
2022/10/26 06:29:42;;;;;;;9.90;4.85;;;;;;;4.15;57.86;99937.53;6229240;22;20022;-70
2022/10/26 06:32:08;;;;;;;10.82;5.18;;;;;;;4.03;57.94;99938.00;6229883;22;20015;-70
2022/10/26 06:34:36;;;;;;;5.03;3.92;;;;;;;4.10;58.50;99938.59;6229933;22;20030;-69
2022/10/26 06:37:02;;;;;;;10.82;5.40;;;;;;;3.96;58.86;99932.09;6229931;22;20425;-71
2022/10/26 06:39:30;;;;;;;7.05;4.65;;;;;;;3.91;58.94;99934.09;6229519;22;20023;-69
2022/10/26 06:41:56;;;;;;;6.63;4.57;;;;;;;4.00;58.24;99936.34;6226452;22;20102;-68
2022/10/26 06:44:23;;;;;;;10.50;5.30;;;;;;;4.03;57.92;99937.16;6230513;22;20011;-69
2022/10/26 06:47:20;;;;;;;9.77;5.03;;;;;;;4.06;57.88;99937.91;6230663;22;20016;-69
2022/10/26 06:49:54;;;;;;;12.13;5.03;;;;;;;4.03;58.27;99934.50;6177168;22;20076;-68
2022/10/26 06:52:28;;;;;;;13.05;6.05;;;;;;;4.17;57.93;99932.19;6229273;22;20012;-70
2022/10/26 06:54:54;;;;;;;10.60;5.70;;;;;;;4.31;57.95;99937.72;6230015;22;20047;-68
2022/10/26 06:57:21;;;;;;;9.65;5.13;;;;;;;4.45;57.43;99939.81;6229364;22;20026;-69
2022/10/26 06:59:50;;;;;;;15.02;5.78;;;;;;;4.69;56.89;99931.72;6229374;22;20027;-69
2022/10/26 07:02:15;;;;;;;12.40;6.30;;;;;;;5.07;57.21;99927.41;6230521;22;20025;-70
2022/10/26 07:04:41;;;;;;;9.85;5.60;;;;;;;5.46;56.05;99926.50;6229864;22;20019;-69
2022/10/26 07:07:07;;;;;;;8.88;5.25;;;;;;;5.79;55.10;99926.72;6228092;22;20430;-69
2022/10/26 07:09:32;;;;;;;5.25;3.70;;;;;;;6.18;54.78;99931.94;6227895;22;20019;-72
2022/10/26 07:11:56;;;;;;;17.70;6.75;;;;;;;6.29;52.41;99934.91;6228670;22;20019;-74
2022/10/26 07:14:21;;;;;;;9.07;4.95;;;;;;;6.46;51.43;99924.31;6229259;22;20020;-69
2022/10/26 07:16:46;;;;;;;10.38;6.07;;;;;;;6.54;51.35;99927.47;6230071;22;20016;-70
2022/10/26 07:19:10;;;;;;;5.35;3.90;;;;;;;6.73;51.16;99930.03;6230710;22;20019;-68
2022/10/26 07:21:35;;;;;;;6.47;4.28;;;;;;;6.91;49.62;99914.94;6228985;22;20018;-68
2022/10/26 07:23:59;;;;;;;8.57;4.00;;;;;;;7.35;49.78;99932.94;6231612;22;20023;-70
2022/10/26 07:26:24;;;;;;;12.75;4.93;;;;;;;8.53;47.22;99933.41;6232086;22;20333;-70
2022/10/26 07:28:50;;;;;;;7.43;5.43;;;;;;;10.48;44.33;99914.03;6232514;22;20046;-67
2022/10/26 07:31:15;;;;;;;7.28;3.70;;;;;;;12.36;42.60;99924.69;6230784;22;20015;-69
2022/10/26 07:33:41;;;;;;;8.40;4.82;;;;;;;13.40;37.17;99912.25;6204855;22;20026;-68
2022/10/26 07:36:07;;;;;;;13.48;5.93;;;;;;;13.92;35.60;99924.16;6233585;22;20332;-67
2022/10/26 07:38:32;;;;;;;17.05;5.78;;;;;;;14.67;33.94;99924.19;6234307;22;20050;-68
2022/10/26 07:40:56;;;;;;;5.85;3.95;;;;;;;15.82;35.10;99917.84;6238092;22;20019;-68
2022/10/26 07:43:21;;;;;;;9.50;5.20;;;;;;;16.70;31.46;99918.72;6209568;22;20011;-68
2022/10/26 07:45:49;;;;;;;13.68;5.45;;;;;;;18.19;28.80;99922.41;6237897;22;20019;-69
2022/10/26 07:48:14;;;;;;;9.88;5.78;;;;;;;19.21;27.73;99904.81;6251459;22;20023;-68
2022/10/26 07:50:38;;;;;;;8.05;5.35;;;;;;;18.98;27.86;99914.44;6240580;22;20130;-68
2022/10/26 07:53:03;;;;;;;11.63;6.30;;;;;;;18.70;28.28;99912.88;6239458;22;20454;-69
2022/10/26 07:55:27;;;;;;;15.02;6.28;;;;;;;17.66;28.44;99915.03;6238344;22;20019;-68
2022/10/26 07:57:53;;;;;;;10.88;5.50;;;;;;;17.15;29.40;99914.59;6230645;22;20356;-71
2022/10/26 08:00:18;;;;;;;9.70;5.47;;;;;;;15.38;30.49;99913.66;6233525;22;20027;-70
2022/10/26 08:02:43;;;;;;;13.85;6.72;;;;;;;14.63;32.35;99914.72;6234804;22;20454;-69
2022/10/26 08:05:08;;;;;;;16.05;5.90;;;;;;;14.10;32.90;99914.63;6235261;22;20019;-68
2022/10/26 08:07:33;;;;;;;15.68;6.43;;;;;;;13.39;33.81;99921.25;6234621;22;20118;-68
2022/10/26 08:09:59;;;;;;;10.45;5.30;;;;;;;12.96;34.55;99923.72;6230441;22;20023;-69
2022/10/26 08:12:24;;;;;;;12.85;6.47;;;;;;;12.14;35.10;99921.91;6228577;22;20019;-69
2022/10/26 08:14:48;;;;;;;11.07;6.45;;;;;;;11.18;36.94;99922.56;6232515;22;20038;-69
2022/10/26 08:17:13;;;;;;;9.60;5.80;;;;;;;10.71;38.77;99918.69;6229793;22;20011;-69
2022/10/26 08:19:38;;;;;;;7.95;5.53;;;;;;;10.40;38.42;99930.53;6231483;22;20103;-69
2022/10/26 08:22:02;;;;;;;9.50;5.95;;;;;;;10.04;39.10;99928.44;6231828;22;20020;-68
2022/10/26 08:24:28;;;;;;;11.73;5.72;;;;;;;9.55;40.98;99933.38;6232540;22;20386;-68
2022/10/26 08:26:52;;;;;;;10.95;6.57;;;;;;;9.45;41.20;99926.91;6205106;22;20023;-71
2022/10/26 08:29:17;;;;;;;10.98;6.68;;;;;;;9.43;40.93;99923.50;6231904;22;20483;-68
2022/10/26 08:31:42;;;;;;;14.68;6.55;;;;;;;9.11;41.55;99917.50;6229255;22;20982;-69
2022/10/26 08:34:06;;;;;;;12.93;7.70;;;;;;;8.99;42.04;99921.75;6230100;22;20095;-69
2022/10/26 08:36:31;;;;;;;11.10;6.10;;;;;;;8.72;42.51;99932.22;6232031;22;20431;-68
2022/10/26 08:38:56;;;;;;;9.95;6.25;;;;;;;8.40;43.51;99930.59;6229531;22;20446;-68
2022/10/26 08:41:32;;;;;;;13.15;6.20;;;;;;;8.55;43.85;99928.88;6235067;22;20054;-68
2022/10/26 08:44:03;;;;;;;9.70;4.95;;;;;;;8.90;43.30;99938.28;6233862;22;20046;-69
2022/10/26 08:46:35;;;;;;;15.25;6.20;;;;;;;8.79;43.22;99931.88;6237332;22;20351;-68
2022/10/26 08:49:12;;;;;;;15.23;5.72;;;;;;;8.91;43.12;99937.31;6233392;22;20015;-69
2022/10/26 08:51:40;;;;;;;20.42;6.78;;;;;;;8.76;42.81;99932.06;6231049;22;20051;-69
2022/10/26 08:54:34;;;;;;;9.43;5.93;;;;;;;8.66;43.44;99934.41;6231650;22;20455;-68
2022/10/26 08:57:03;;;;;;;10.30;6.25;;;;;;;8.86;43.29;99934.06;6225886;22;20043;-70
2022/10/26 08:59:59;;;;;;;11.43;6.10;;;;;;;9.27;42.75;99936.00;6232090;22;20090;-69
2022/10/26 09:02:23;;;;;;;9.60;5.80;;;;;;;9.34;42.41;99930.25;6233661;22;20086;-73
2022/10/26 09:04:48;;;;;;;12.10;6.15;;;;;;;9.53;42.08;99934.41;6206874;22;20022;-68
2022/10/26 09:07:19;;;;;;;9.50;5.60;;;;;;;9.51;41.83;99941.63;6234909;22;20355;-69
2022/10/26 09:09:59;;;;;;;10.90;6.15;;;;;;;9.19;42.54;99928.50;6237377;22;20016;-68
2022/10/26 09:12:31;;;;;;;10.43;5.75;;;;;;;9.03;42.93;99933.03;6236691;22;20015;-67
2022/10/26 09:15:13;;;;;;;9.20;5.57;;;;;;;8.96;43.07;99940.56;6236886;22;20053;-67
2022/10/26 09:18:04;;;;;;;7.70;4.80;;;;;;;9.07;43.33;99938.09;6236828;22;20116;-69
2022/10/26 09:21:00;;;;;;;13.70;5.75;;;;;;;9.36;43.18;99940.78;6235272;22;20021;-71
2022/10/26 09:23:46;;;;;;;11.65;6.45;;;;;;;9.70;42.48;99935.06;6209098;22;20355;-70
2022/10/26 09:26:14;;;;;;;10.43;6.45;;;;;;;10.20;41.19;99936.31;6236093;22;20027;-68
2022/10/26 09:28:40;;;;;;;10.00;6.38;;;;;;;10.27;40.93;99932.28;6206937;22;20023;-68
2022/10/26 09:31:05;;;;;;;13.73;6.50;;;;;;;10.77;40.52;99928.94;6229868;22;20038;-69
2022/10/26 09:33:35;;;;;;;11.93;6.30;;;;;;;11.64;39.21;99923.69;6229393;22;20028;-68
2022/10/26 09:36:05;;;;;;;10.55;5.75;;;;;;;12.53;37.41;99936.78;6202350;22;20369;-69
2022/10/26 09:38:42;;;;;;;8.80;5.25;;;;;;;12.95;36.46;99931.84;6228965;22;20374;-68
2022/10/26 09:41:30;;;;;;;11.05;6.60;;;;;;;12.42;37.19;99925.19;6230046;22;20020;-68
2022/10/26 09:44:11;;;;;;;9.48;5.80;;;;;;;11.96;37.22;99924.06;6228717;22;20016;-68
2022/10/26 09:46:41;;;;;;;9.90;5.97;;;;;;;11.56;38.39;99928.75;6230107;22;20088;-68
2022/10/26 09:49:10;;;;;;;15.57;5.30;;;;;;;11.54;37.94;99932.47;6227624;22;20027;-67
2022/10/26 09:51:38;;;;;;;10.07;5.88;;;;;;;10.90;38.96;99932.47;6175275;22;20015;-69
2022/10/26 09:54:13;;;;;;;14.73;7.68;;;;;;;10.36;39.78;99931.69;6227493;22;20445;-69
2022/10/26 09:56:40;;;;;;;9.98;6.40;;;;;;;9.86;40.90;99931.41;6229089;22;20008;-69
2022/10/26 09:59:06;;;;;;;8.68;5.95;;;;;;;9.61;41.43;99934.78;6229141;22;20604;-68
2022/10/26 10:01:33;;;;;;;12.75;6.20;;;;;;;9.49;42.18;99936.41;6228854;22;20458;-69
2022/10/26 10:04:12;;;;;;;12.02;5.60;;;;;;;9.48;42.50;99936.53;6228749;22;20090;-69
2022/10/26 10:06:48;;;;;;;13.90;6.85;;;;;;;9.11;43.09;99941.44;6228743;22;20018;-70
2022/10/26 10:09:19;;;;;;;12.82;8.38;;;;;;;8.95;43.90;99933.50;6229211;22;20016;-71
2022/10/26 10:11:53;;;;;;;7.95;5.30;;;;;;;8.67;44.47;99938.78;6227410;22;20374;-71
2022/10/26 10:14:18;;;;;;;12.50;5.68;;;;;;;8.69;44.23;99923.59;6229033;22;20023;-70
2022/10/26 10:16:58;;;;;;;10.35;5.63;;;;;;;8.49;44.64;99935.38;6227002;22;20019;-71
2022/10/26 10:19:31;;;;;;;9.52;5.72;;;;;;;8.08;45.21;99934.22;6231449;22;20469;-70
2022/10/26 10:21:58;;;;;;;7.75;4.63;;;;;;;7.86;45.72;99929.25;6228371;22;20447;-70
2022/10/26 10:24:31;;;;;;;10.70;5.90;;;;;;;7.68;46.59;99936.44;6227701;22;20061;-71
2022/10/26 10:27:11;;;;;;;11.02;5.32;;;;;;;7.38;47.15;99915.09;6227113;22;20475;-71
2022/10/26 10:29:41;;;;;;;14.23;6.40;;;;;;;7.29;47.74;99924.41;6229730;22;20015;-72
2022/10/26 10:32:14;;;;;;;9.95;5.82;;;;;;;7.23;48.43;99926.50;6229127;22;20384;-69
2022/10/26 10:34:39;;;;;;;9.93;5.93;;;;;;;7.00;48.62;99919.75;6228609;22;20351;-68
2022/10/26 10:37:04;;;;;;;9.73;5.85;;;;;;;7.08;48.56;99925.53;6229559;22;20038;-68
2022/10/26 10:39:40;;;;;;;10.80;5.47;;;;;;;7.20;48.63;99934.66;6229233;22;20018;-68
2022/10/26 10:42:28;;;;;;;10.98;5.18;;;;;;;7.39;48.08;99919.47;6201770;22;20030;-69
2022/10/26 10:44:54;;;;;;;7.10;4.57;;;;;;;7.11;48.86;99924.53;6229077;22;20458;-70
2022/10/26 10:47:25;;;;;;;9.50;5.30;;;;;;;6.99;48.83;99920.72;6226655;22;20444;-70
2022/10/26 10:50:13;;;;;;;13.95;6.03;;;;;;;6.80;49.23;99919.94;6227523;22;20348;-71
2022/10/26 10:52:38;;;;;;;11.85;5.25;;;;;;;6.84;49.80;99925.03;6206249;22;20019;-71
2022/10/26 10:55:12;;;;;;;9.45;5.13;;;;;;;6.83;49.79;99930.41;6203632;22;20463;-70
2022/10/26 10:57:55;;;;;;;14.23;5.97;;;;;;;6.91;50.05;99923.75;6239062;22;20016;-68
2022/10/26 11:00:21;;;;;;;11.43;5.25;;;;;;;6.76;49.84;99929.03;6230173;22;20019;-68
2022/10/26 11:03:06;;;;;;;9.85;4.57;;;;;;;6.93;49.69;99931.63;6229945;22;20015;-67
2022/10/26 11:05:55;;;;;;;13.88;6.03;;;;;;;6.74;49.61;99926.44;6228512;22;20090;-65
2022/10/26 11:08:32;;;;;;;10.10;5.70;;;;;;;6.69;50.02;99927.59;6203579;22;20019;-66
2022/10/26 11:11:04;;;;;;;8.35;6.05;;;;;;;6.64;50.55;99927.84;6230793;22;20027;-66
2022/10/26 11:14:03;;;;;;;11.63;5.95;;;;;;;6.64;50.79;99922.56;6203422;22;20344;-66
2022/10/26 11:16:39;;;;;;;7.20;3.33;;;;;;;6.69;50.16;99927.59;6230929;22;20015;-67
2022/10/26 11:19:21;;;;;;;9.13;4.85;;;;;;;6.70;49.66;99922.22;6230588;22;20482;-67
2022/10/26 11:21:52;;;;;;;12.32;5.07;;;;;;;6.60;50.17;99923.63;6229003;22;20019;-68
2022/10/26 11:24:44;;;;;;;5.97;3.90;;;;;;;6.68;49.51;99924.09;6203720;22;20019;-70
2022/10/26 11:27:31;;;;;;;9.80;5.88;;;;;;;6.58;50.15;99920.19;6230632;22;20016;-70
2022/10/26 11:30:00;;;;;;;6.90;4.15;;;;;;;6.65;49.50;99918.97;6231039;22;20439;-69
2022/10/26 11:32:31;;;;;;;9.82;6.32;;;;;;;6.48;50.52;99916.31;6203637;22;20442;-68
2022/10/26 11:35:10;;;;;;;10.27;4.90;;;;;;;6.58;49.60;99930.78;6228913;22;20123;-67
2022/10/26 11:37:47;;;;;;;10.13;4.78;;;;;;;6.63;49.33;99922.63;6228716;22;20039;-66
2022/10/26 11:40:51;;;;;;;10.57;5.53;;;;;;;6.44;49.69;99918.25;6229871;22;20016;-67
2022/10/26 11:43:52;;;;;;;10.80;5.73;;;;;;;6.44;50.22;99909.44;6239049;22;20050;-67
2022/10/26 11:46:20;;;;;;;7.35;4.45;;;;;;;6.48;50.07;99911.00;6209184;22;20269;-68
2022/10/26 11:49:19;;;;;;;6.13;4.22;;;;;;;6.55;49.49;99905.31;6229691;22;20015;-68
2022/10/26 11:52:04;;;;;;;11.32;4.80;;;;;;;6.47;49.46;99911.94;6228741;22;20442;-67